Paris, Texas
Current Conditions -  °F | °C
As of 9:55 AM on Friday 31 Oct 2014 (Local Time) from KPRX Reporting Station
Clear Clear  
Wind Chill: 55°   Ceiling: Unl
Heat Index: 55°   Visibility: 10mi
Dew Point: 39°   Wind: 17mph
Humidity: 54%   Direction: 350°N
Pressure: 30.28"   Gusts: 21mph
Location:  33.66°N, 95.56°W
Report Text: KPRX 311455Z 35015G18KT 10SM CLR 13/04 A3028 RMK AO1 52020
Loading
Personal Weather Stations






























Interactive Weather Map
Tropical Storm Tracking
New forecast layout! Learn more

10-Day Weather Forecast

Advertisements
Track Severe Weather on mobile